createdAt,value
2023-01-29T00:00:23.538Z,84.01
2023-01-29T00:02:52.883Z,83.99
2023-01-29T00:05:27.772Z,83.97
2023-01-29T00:07:57.475Z,83.87
2023-01-29T00:10:26.667Z,84.14
2023-01-29T00:12:55.910Z,83.67
2023-01-29T00:15:24.821Z,83.76
2023-01-29T00:17:53.770Z,84.07
2023-01-29T00:20:22.521Z,83.88
2023-01-29T00:22:51.357Z,83.94
2023-01-29T00:25:20.296Z,83.29
2023-01-29T00:27:49.342Z,83.63
2023-01-29T00:30:20.297Z,83.57
2023-01-29T00:32:49.327Z,83.59
2023-01-29T00:35:18.386Z,83.95
2023-01-29T00:37:47.312Z,83.53
2023-01-29T00:40:16.803Z,83.72
2023-01-29T00:43:04.892Z,83.84
2023-01-29T00:45:34.410Z,83.85
2023-01-29T00:48:04.342Z,83.77
2023-01-29T00:50:33.635Z,83.88
2023-01-29T00:53:02.451Z,83.82
2023-01-29T00:55:31.424Z,83.58
2023-01-29T00:58:00.341Z,83.50
2023-01-29T01:00:30.033Z,83.76
2023-01-29T01:03:08.470Z,83.76
2023-01-29T01:05:37.539Z,83.85
2023-01-29T01:08:26.276Z,83.78
2023-01-29T01:11:06.902Z,83.75
2023-01-29T01:13:35.852Z,83.96
2023-01-29T01:16:11.081Z,83.90
2023-01-29T01:18:40.421Z,84.01
2023-01-29T01:21:09.506Z,83.97
2023-01-29T01:23:38.360Z,83.80
2023-01-29T01:26:10.324Z,83.71
2023-01-29T01:28:40.231Z,83.81
2023-01-29T01:31:14.533Z,83.91
2023-01-29T01:33:43.535Z,84.12
2023-01-29T01:36:14.333Z,83.81
2023-01-29T01:38:46.159Z,83.74
2023-01-29T01:41:21.354Z,83.80
2023-01-29T01:43:59.379Z,83.60
2023-01-29T01:46:37.597Z,83.69
2023-01-29T01:49:19.064Z,84.17
2023-01-29T01:51:52.647Z,84.08
2023-01-29T01:54:33.179Z,84.13
2023-01-29T01:57:16.574Z,83.86
2023-01-29T02:00:12.383Z,83.85
2023-01-29T02:03:05.494Z,84.31
2023-01-29T02:05:55.166Z,84.15
2023-01-29T02:09:04.624Z,84.22
2023-01-29T02:11:33.735Z,84.21
2023-01-29T02:14:02.889Z,84.29
2023-01-29T02:16:34.636Z,84.32
2023-01-29T02:19:11.643Z,84.18
2023-01-29T02:21:46.244Z,84.39
2023-01-29T02:24:18.343Z,84.38
2023-01-29T02:27:00.373Z,84.26
2023-01-29T02:29:47.935Z,84.76
2023-01-29T02:32:32.217Z,84.43
2023-01-29T02:35:25.952Z,84.75
2023-01-29T02:38:18.750Z,84.59
2023-01-29T02:40:59.642Z,84.55
2023-01-29T02:43:41.795Z,84.58
2023-01-29T02:46:38.246Z,84.49
2023-01-29T02:49:09.821Z,84.63
2023-01-29T02:51:52.279Z,84.91
2023-01-29T02:54:29.550Z,84.60
2023-01-29T02:57:01.779Z,84.84
2023-01-29T02:59:45.013Z,84.76
2023-01-29T03:02:25.220Z,84.32
2023-01-29T03:05:00.552Z,84.60
2023-01-29T03:07:43.258Z,84.59
2023-01-29T03:10:22.276Z,84.70
2023-01-29T03:13:05.773Z,84.68
2023-01-29T03:15:47.702Z,84.92
2023-01-29T03:18:34.885Z,84.77
2023-01-29T03:21:35.402Z,84.58
2023-01-29T03:24:25.458Z,84.83
2023-01-29T03:27:13.449Z,85.18
2023-01-29T03:30:06.327Z,84.87
2023-01-29T03:32:52.564Z,84.90
2023-01-29T03:35:34.102Z,85.07
2023-01-29T03:38:12.051Z,85.34
2023-01-29T03:40:51.187Z,85.19
2023-01-29T03:43:37.469Z,85.20
2023-01-29T03:46:19.388Z,84.87
2023-01-29T03:49:22.869Z,84.91
2023-01-29T03:52:03.632Z,85.23
2023-01-29T03:54:55.374Z,84.67
2023-01-29T03:57:39.431Z,84.96
2023-01-29T04:00:16.060Z,85.20
2023-01-29T04:03:23.964Z,84.91
2023-01-29T04:06:22.946Z,84.95
2023-01-29T04:09:12.995Z,84.84
2023-01-29T04:11:52.520Z,85.20
2023-01-29T04:14:21.687Z,84.92
2023-01-29T04:16:58.153Z,84.79
2023-01-29T04:19:52.051Z,85.39
2023-01-29T04:22:28.428Z,85.23
2023-01-29T04:25:03.320Z,85.06
2023-01-29T04:28:30.932Z,85.66
2023-01-29T04:31:07.254Z,85.67
2023-01-29T04:33:52.007Z,85.55
2023-01-29T04:36:29.560Z,85.95
2023-01-29T04:39:11.917Z,85.74
2023-01-29T04:41:52.450Z,85.19
2023-01-29T04:44:27.787Z,84.62
2023-01-29T04:47:09.210Z,85.11
2023-01-29T04:49:49.921Z,85.31
2023-01-29T04:52:34.156Z,85.36
2023-01-29T04:55:20.894Z,85.52
2023-01-29T04:58:07.857Z,84.88
2023-01-29T05:00:44.782Z,85.26
2023-01-29T05:03:16.670Z,84.62
2023-01-29T05:05:50.194Z,84.61
2023-01-29T05:08:24.778Z,85.11
2023-01-29T05:10:56.290Z,85.30
2023-01-29T05:13:27.616Z,85.44
2023-01-29T05:16:15.505Z,85.90
2023-01-29T05:18:44.456Z,85.63
2023-01-29T05:21:13.653Z,84.06
2023-01-29T05:23:59.962Z,83.40
2023-01-29T05:26:47.325Z,80.15
2023-01-29T05:29:16.139Z,80.46
2023-01-29T05:31:46.089Z,81.90
2023-01-29T05:34:14.982Z,82.35
2023-01-29T05:36:43.822Z,81.26
2023-01-29T05:39:12.770Z,82.07
2023-01-29T05:41:41.822Z,82.85
2023-01-29T05:44:11.626Z,84.59
2023-01-29T05:46:40.548Z,84.96
2023-01-29T05:49:09.357Z,84.31
2023-01-29T05:51:38.165Z,85.06
2023-01-29T05:54:07.097Z,85.49
2023-01-29T05:56:36.013Z,85.78
2023-01-29T05:59:04.987Z,85.80
2023-01-29T06:01:34.623Z,86.47
2023-01-29T06:04:04.353Z,86.18
2023-01-29T06:06:33.395Z,86.18
2023-01-29T06:09:03.197Z,86.64
2023-01-29T06:11:32.092Z,86.70
2023-01-29T06:14:02.016Z,86.51
2023-01-29T06:16:30.934Z,87.20
2023-01-29T06:18:59.854Z,87.68
2023-01-29T06:21:28.732Z,87.34
2023-01-29T06:23:57.742Z,87.28
2023-01-29T06:26:26.701Z,87.61
2023-01-29T06:28:55.656Z,87.58
2023-01-29T06:31:37.959Z,87.40
2023-01-29T06:34:08.881Z,87.53
2023-01-29T06:36:37.923Z,87.32
2023-01-29T06:39:06.800Z,87.35
2023-01-29T06:41:35.881Z,87.54
2023-01-29T06:44:04.783Z,87.37
2023-01-29T06:46:33.603Z,87.35
2023-01-29T06:49:02.789Z,87.22
2023-01-29T06:51:31.678Z,87.27
2023-01-29T06:54:00.804Z,86.98
2023-01-29T06:56:29.777Z,87.34
2023-01-29T06:58:58.645Z,86.72
2023-01-29T07:01:35.977Z,86.35
2023-01-29T07:04:05.966Z,86.83
2023-01-29T07:06:35.159Z,86.24
2023-01-29T07:09:06.714Z,86.79
2023-01-29T07:11:38.465Z,86.60
2023-01-29T07:14:07.619Z,86.72
2023-01-29T07:16:36.683Z,86.80
2023-01-29T07:19:05.640Z,87.03
2023-01-29T07:21:34.482Z,87.18
2023-01-29T07:24:03.943Z,87.17
2023-01-29T07:26:32.914Z,87.58
2023-01-29T07:29:01.771Z,87.58
2023-01-29T07:31:30.793Z,87.43
2023-01-29T07:33:59.663Z,86.93
2023-01-29T07:36:29.097Z,86.84
2023-01-29T07:38:57.889Z,86.96
2023-01-29T07:41:26.720Z,87.44
2023-01-29T07:43:56.464Z,86.54
2023-01-29T07:46:25.379Z,87.14
2023-01-29T07:48:54.319Z,87.32
2023-01-29T07:51:23.175Z,87.69
2023-01-29T07:53:52.159Z,87.74
2023-01-29T07:56:21.087Z,87.88
2023-01-29T07:58:49.960Z,87.71
2023-01-29T08:01:19.275Z,87.66
2023-01-29T08:03:50.043Z,87.42
2023-01-29T08:06:20.000Z,87.97
2023-01-29T08:08:48.896Z,87.89
2023-01-29T08:11:17.745Z,87.88
2023-01-29T08:13:47.233Z,87.40
2023-01-29T08:16:16.176Z,87.74
2023-01-29T08:18:48.277Z,87.74
2023-01-29T08:21:17.198Z,86.05
2023-01-29T08:23:46.355Z,84.95
2023-01-29T08:26:15.284Z,84.61
2023-01-29T08:28:44.076Z,85.30
2023-01-29T08:31:17.510Z,85.04
2023-01-29T08:33:46.501Z,85.32
2023-01-29T08:36:15.945Z,85.75
2023-01-29T08:38:44.744Z,86.01
2023-01-29T08:41:13.696Z,86.63
2023-01-29T08:43:42.471Z,86.42
2023-01-29T08:46:11.412Z,86.86
2023-01-29T08:48:40.661Z,88.15
2023-01-29T08:51:10.084Z,88.07
2023-01-29T08:53:39.044Z,88.46
2023-01-29T08:56:08.241Z,87.97
2023-01-29T08:58:37.112Z,87.59
2023-01-29T09:01:08.699Z,87.16
2023-01-29T09:03:38.862Z,86.25
2023-01-29T09:06:09.580Z,85.98
2023-01-29T09:08:38.731Z,86.16
2023-01-29T09:11:07.956Z,85.87
2023-01-29T09:13:36.908Z,86.29
2023-01-29T09:16:06.034Z,86.38
2023-01-29T09:18:34.891Z,85.92
2023-01-29T09:21:03.918Z,86.31
2023-01-29T09:23:33.275Z,85.96
2023-01-29T09:26:02.138Z,86.22
2023-01-29T09:28:31.044Z,86.80
2023-01-29T09:31:03.563Z,86.62
2023-01-29T09:33:33.143Z,86.73
2023-01-29T09:36:04.125Z,87.10
2023-01-29T09:38:32.962Z,86.61
2023-01-29T09:41:46.203Z,86.95
2023-01-29T09:44:26.146Z,87.27
2023-01-29T09:46:56.853Z,86.84
2023-01-29T09:49:51.119Z,86.71
2023-01-29T09:52:29.579Z,86.40
2023-01-29T09:55:04.406Z,86.79
2023-01-29T09:57:46.197Z,86.96
2023-01-29T10:00:32.674Z,86.63
2023-01-29T10:03:23.275Z,86.40
2023-01-29T10:06:16.273Z,86.17
2023-01-29T10:09:06.360Z,86.06
2023-01-29T10:12:13.798Z,86.20
2023-01-29T10:15:06.614Z,86.18
2023-01-29T10:17:53.805Z,86.01
2023-01-29T10:20:35.916Z,86.34
2023-01-29T10:23:22.424Z,86.38
2023-01-29T10:25:51.570Z,86.62
2023-01-29T10:28:26.228Z,86.79
2023-01-29T10:31:09.309Z,86.47
2023-01-29T10:33:49.471Z,86.39
2023-01-29T10:36:36.820Z,86.32
2023-01-29T10:39:05.765Z,86.42
2023-01-29T10:42:12.434Z,86.30
2023-01-29T10:45:05.634Z,86.47
2023-01-29T10:47:37.337Z,86.20
2023-01-29T10:50:43.461Z,85.88
2023-01-29T10:53:31.547Z,86.07
2023-01-29T10:56:21.002Z,85.95
2023-01-29T10:58:55.883Z,85.91
2023-01-29T11:01:27.502Z,86.46
2023-01-29T11:04:03.539Z,85.95
2023-01-29T11:06:37.071Z,86.39
2023-01-29T11:09:19.996Z,86.49
2023-01-29T11:11:55.657Z,86.17
2023-01-29T11:14:30.579Z,86.55
2023-01-29T11:17:00.186Z,85.74
2023-01-29T11:19:43.233Z,85.75
2023-01-29T11:22:24.217Z,85.54
2023-01-29T11:25:18.971Z,85.59
2023-01-29T11:27:53.001Z,85.35
2023-01-29T11:30:29.388Z,85.42
2023-01-29T11:33:13.551Z,85.18
2023-01-29T11:35:42.687Z,85.21
2023-01-29T11:38:17.385Z,85.16
2023-01-29T11:40:46.342Z,85.60
2023-01-29T11:43:23.918Z,85.34
2023-01-29T11:45:56.954Z,85.43
2023-01-29T11:48:40.150Z,85.33
2023-01-29T11:51:12.517Z,85.64
2023-01-29T11:53:50.277Z,85.64
2023-01-29T11:56:24.965Z,85.68
2023-01-29T11:58:56.913Z,85.91
2023-01-29T12:01:39.689Z,85.93
2023-01-29T12:04:23.198Z,85.97
2023-01-29T12:06:54.901Z,85.74
2023-01-29T12:09:30.188Z,85.77
2023-01-29T12:12:18.806Z,85.93
2023-01-29T12:14:47.760Z,85.89
2023-01-29T12:17:27.345Z,86.09
2023-01-29T12:20:04.707Z,85.69
2023-01-29T12:22:56.684Z,86.08
2023-01-29T12:25:34.338Z,86.14
2023-01-29T12:28:33.100Z,86.01
2023-01-29T12:31:15.792Z,86.28
2023-01-29T12:33:55.345Z,86.13
2023-01-29T12:36:44.108Z,85.89
2023-01-29T12:39:17.654Z,86.21
2023-01-29T12:42:01.291Z,86.29
2023-01-29T12:44:44.170Z,86.27
2023-01-29T12:47:38.959Z,86.24
2023-01-29T12:50:24.348Z,85.87
2023-01-29T12:53:01.404Z,85.86
2023-01-29T12:55:48.374Z,85.70
2023-01-29T12:58:39.194Z,85.63
2023-01-29T13:01:15.320Z,85.78
2023-01-29T13:04:00.845Z,85.69
2023-01-29T13:06:37.495Z,85.57
2023-01-29T13:09:12.742Z,85.53
2023-01-29T13:11:44.463Z,85.30
2023-01-29T13:14:29.492Z,85.57
2023-01-29T13:17:15.263Z,85.72
2023-01-29T13:20:04.851Z,85.43
2023-01-29T13:22:38.852Z,85.43
2023-01-29T13:25:13.397Z,85.27
2023-01-29T13:27:46.394Z,85.17
2023-01-29T13:30:37.451Z,85.47
2023-01-29T13:33:10.634Z,85.51
2023-01-29T13:35:43.746Z,85.16
2023-01-29T13:38:33.993Z,85.20
2023-01-29T13:41:11.535Z,84.85
2023-01-29T13:43:43.549Z,84.81
2023-01-29T13:46:21.870Z,84.99
2023-01-29T13:48:55.104Z,84.42
2023-01-29T13:51:33.255Z,84.50
2023-01-29T13:54:06.648Z,84.67
2023-01-29T13:56:35.493Z,84.47
2023-01-29T13:59:06.950Z,84.34
2023-01-29T14:01:49.037Z,84.62
2023-01-29T14:04:26.119Z,84.55
2023-01-29T14:06:59.386Z,84.17
2023-01-29T14:09:38.332Z,84.24
2023-01-29T14:12:22.528Z,84.33
2023-01-29T14:14:55.666Z,84.02
2023-01-29T14:17:27.752Z,84.38
2023-01-29T14:20:18.431Z,84.33
2023-01-29T14:22:56.932Z,84.21
2023-01-29T14:25:34.495Z,84.41
2023-01-29T14:28:07.765Z,84.07
2023-01-29T14:30:38.723Z,84.21
2023-01-29T14:33:40.376Z,84.33
2023-01-29T14:36:16.314Z,84.03
2023-01-29T14:38:52.645Z,83.74
2023-01-29T14:41:33.432Z,83.90
2023-01-29T14:44:39.497Z,83.93
2023-01-29T14:47:18.703Z,83.82
2023-01-29T14:49:57.878Z,84.05
2023-01-29T14:52:38.329Z,83.80
2023-01-29T14:55:29.143Z,84.03
2023-01-29T14:57:58.930Z,83.88
2023-01-29T15:00:31.925Z,83.98
2023-01-29T15:03:03.633Z,83.94
2023-01-29T15:05:37.975Z,84.26
2023-01-29T15:08:31.988Z,84.17
2023-01-29T15:11:30.790Z,84.26
2023-01-29T15:14:18.004Z,83.89
2023-01-29T15:17:06.654Z,83.79
2023-01-29T15:19:51.481Z,83.79
2023-01-29T15:22:26.662Z,83.88
2023-01-29T15:25:15.241Z,83.82
2023-01-29T15:27:46.430Z,83.67
2023-01-29T15:30:22.752Z,83.80
2023-01-29T15:32:52.053Z,83.72
2023-01-29T15:35:26.679Z,83.65
2023-01-29T15:38:06.761Z,83.58
2023-01-29T15:40:35.828Z,83.32
2023-01-29T15:43:23.975Z,83.75
2023-01-29T15:45:58.008Z,83.81
2023-01-29T15:48:42.456Z,83.52
2023-01-29T15:51:20.728Z,83.34
2023-01-29T15:53:53.890Z,83.47
2023-01-29T15:56:32.033Z,83.54
2023-01-29T15:59:07.278Z,83.23
2023-01-29T16:01:39.416Z,83.23
2023-01-29T16:04:34.251Z,83.61
2023-01-29T16:07:04.948Z,83.11
2023-01-29T16:09:33.901Z,83.26
2023-01-29T16:12:03.489Z,83.41
2023-01-29T16:14:32.799Z,83.03
2023-01-29T16:17:22.750Z,83.21
2023-01-29T16:20:02.983Z,83.18
2023-01-29T16:22:36.317Z,82.84
2023-01-29T16:25:15.974Z,82.85
2023-01-29T16:27:45.438Z,83.25
2023-01-29T16:30:19.144Z,83.03
2023-01-29T16:32:48.100Z,83.33
2023-01-29T16:35:18.109Z,83.19
2023-01-29T16:37:52.207Z,83.24
2023-01-29T16:40:33.255Z,83.51
2023-01-29T16:43:20.761Z,83.90
2023-01-29T16:46:04.675Z,83.59
2023-01-29T16:48:35.371Z,83.24
2023-01-29T16:51:07.032Z,83.49
2023-01-29T16:53:36.753Z,83.15
2023-01-29T16:56:09.209Z,82.84
2023-01-29T16:58:38.185Z,83.10
2023-01-29T17:01:12.330Z,83.01
2023-01-29T17:03:42.793Z,82.99
2023-01-29T17:06:32.161Z,83.13
2023-01-29T17:09:02.256Z,82.94
2023-01-29T17:11:45.006Z,82.69
2023-01-29T17:14:20.060Z,82.62
2023-01-29T17:17:02.866Z,82.70
2023-01-29T17:19:32.066Z,82.47
2023-01-29T17:22:05.234Z,82.51
2023-01-29T17:24:34.103Z,82.76
2023-01-29T17:27:03.216Z,82.51
2023-01-29T17:29:32.654Z,82.76
2023-01-29T17:32:01.710Z,82.98
2023-01-29T17:34:30.648Z,82.82
2023-01-29T17:37:02.326Z,82.72
2023-01-29T17:39:31.332Z,83.05
2023-01-29T17:42:01.951Z,83.33
2023-01-29T17:44:31.101Z,83.15
2023-01-29T17:47:01.370Z,83.25
2023-01-29T17:49:33.012Z,83.36
2023-01-29T17:52:02.220Z,83.24
2023-01-29T17:54:31.651Z,83.19
2023-01-29T17:57:00.949Z,82.99
2023-01-29T17:59:32.799Z,83.34
2023-01-29T18:02:02.627Z,83.61
2023-01-29T18:04:31.664Z,83.48
2023-01-29T18:07:00.513Z,83.40
2023-01-29T18:09:29.313Z,83.45
2023-01-29T18:11:58.124Z,83.43
2023-01-29T18:14:27.214Z,83.48
2023-01-29T18:16:57.385Z,83.56
2023-01-29T18:19:31.682Z,83.30
2023-01-29T18:22:00.556Z,83.45
2023-01-29T18:24:29.341Z,83.48
2023-01-29T18:26:58.091Z,83.68
2023-01-29T18:29:30.680Z,83.55
2023-01-29T18:32:00.225Z,83.43
2023-01-29T18:34:29.679Z,83.35
2023-01-29T18:37:00.943Z,83.31
2023-01-29T18:39:29.952Z,83.28
2023-01-29T18:41:58.804Z,83.23
2023-01-29T18:44:30.200Z,83.42
2023-01-29T18:46:58.983Z,83.36
2023-01-29T18:49:27.762Z,83.26
2023-01-29T18:51:56.906Z,83.41
2023-01-29T18:54:25.775Z,83.53
2023-01-29T18:57:06.188Z,83.40
2023-01-29T18:59:42.622Z,83.56
2023-01-29T19:02:17.093Z,83.31
2023-01-29T19:04:46.988Z,83.12
2023-01-29T19:07:16.848Z,83.40
2023-01-29T19:09:47.139Z,83.46
2023-01-29T19:12:15.918Z,83.51
2023-01-29T19:14:44.789Z,83.45
2023-01-29T19:17:13.669Z,83.32
2023-01-29T19:19:42.568Z,83.66
2023-01-29T19:22:17.104Z,83.54
2023-01-29T19:24:46.423Z,83.79
2023-01-29T19:27:15.237Z,83.60
2023-01-29T19:29:44.108Z,83.88
2023-01-29T19:32:13.039Z,83.63
2023-01-29T19:34:41.874Z,83.69
2023-01-29T19:37:10.723Z,83.63
2023-01-29T19:39:39.506Z,83.75
2023-01-29T19:42:08.405Z,83.79
2023-01-29T19:44:37.193Z,84.07
2023-01-29T19:47:06.185Z,84.16
2023-01-29T19:49:34.983Z,84.13
2023-01-29T19:52:04.304Z,83.95
2023-01-29T19:54:33.286Z,84.17
2023-01-29T19:57:02.140Z,84.17
2023-01-29T19:59:30.906Z,84.10
2023-01-29T20:02:00.660Z,84.19
2023-01-29T20:04:30.686Z,84.15
2023-01-29T20:07:00.077Z,84.42
2023-01-29T20:09:31.101Z,84.37
2023-01-29T20:11:59.871Z,84.25
2023-01-29T20:14:28.642Z,84.13
2023-01-29T20:16:57.438Z,84.28
2023-01-29T20:19:26.207Z,84.55
2023-01-29T20:21:55.352Z,84.34
2023-01-29T20:24:25.182Z,84.37
2023-01-29T20:26:53.993Z,84.56
2023-01-29T20:29:22.803Z,84.58
2023-01-29T20:31:51.629Z,84.50
2023-01-29T20:34:20.491Z,84.84
2023-01-29T20:36:49.266Z,84.56
2023-01-29T20:39:18.181Z,84.53
2023-01-29T20:41:46.986Z,84.59
2023-01-29T20:44:15.787Z,84.77
2023-01-29T20:46:45.131Z,84.37
2023-01-29T20:49:13.919Z,84.50
2023-01-29T20:51:43.927Z,84.34
2023-01-29T20:54:15.611Z,84.82
2023-01-29T20:56:46.353Z,84.80
2023-01-29T20:59:16.244Z,84.66
2023-01-29T21:01:46.932Z,84.78
2023-01-29T21:04:15.881Z,84.77
2023-01-29T21:06:44.667Z,84.70
2023-01-29T21:09:13.455Z,84.70
2023-01-29T21:11:42.315Z,84.55
2023-01-29T21:14:11.103Z,84.68
2023-01-29T21:16:39.960Z,84.52
2023-01-29T21:19:09.553Z,84.71
2023-01-29T21:21:38.606Z,84.76
2023-01-29T21:24:09.473Z,84.29
2023-01-29T21:26:40.966Z,84.70
2023-01-29T21:29:11.885Z,84.70
2023-01-29T21:31:41.176Z,84.57
2023-01-29T21:34:10.920Z,84.62
2023-01-29T21:36:40.210Z,84.62
2023-01-29T21:39:18.232Z,84.34
2023-01-29T21:42:07.735Z,84.44
2023-01-29T21:44:37.594Z,84.60
2023-01-29T21:47:12.861Z,84.28
2023-01-29T21:49:45.588Z,84.17
2023-01-29T21:52:15.665Z,84.26
2023-01-29T21:54:49.317Z,84.29
2023-01-29T21:57:18.418Z,84.34
2023-01-29T21:59:52.404Z,84.38
2023-01-29T22:02:24.689Z,84.36
2023-01-29T22:05:08.795Z,84.43
2023-01-29T22:07:45.191Z,84.22
2023-01-29T22:10:14.378Z,84.30
2023-01-29T22:12:44.341Z,84.47
2023-01-29T22:15:13.709Z,84.49
2023-01-29T22:17:42.862Z,84.50
2023-01-29T22:20:13.609Z,84.60
2023-01-29T22:22:42.768Z,84.45
2023-01-29T22:25:11.606Z,84.71
2023-01-29T22:27:41.555Z,84.57
2023-01-29T22:30:11.296Z,84.84
2023-01-29T22:32:40.183Z,84.55
2023-01-29T22:35:10.091Z,84.79
2023-01-29T22:37:38.906Z,85.05
2023-01-29T22:40:08.437Z,84.95
2023-01-29T22:42:37.238Z,85.00
2023-01-29T22:45:06.485Z,84.97
2023-01-29T22:47:35.538Z,84.98
2023-01-29T22:50:08.039Z,85.33
2023-01-29T22:52:40.086Z,85.11
2023-01-29T22:55:11.284Z,85.25
2023-01-29T22:57:41.244Z,85.08
2023-01-29T23:00:12.848Z,85.55
2023-01-29T23:02:42.306Z,85.52
2023-01-29T23:05:11.240Z,85.42
2023-01-29T23:07:40.111Z,85.45
2023-01-29T23:10:10.882Z,85.52
2023-01-29T23:12:41.282Z,85.78
2023-01-29T23:15:10.383Z,85.94
2023-01-29T23:17:40.272Z,86.17
2023-01-29T23:20:09.700Z,85.97
2023-01-29T23:22:38.921Z,86.06
2023-01-29T23:25:07.988Z,85.89
2023-01-29T23:27:37.095Z,85.93
2023-01-29T23:30:07.259Z,85.46
2023-01-29T23:32:36.276Z,86.13
2023-01-29T23:35:05.393Z,85.96
2023-01-29T23:37:34.384Z,86.32
2023-01-29T23:40:03.473Z,86.12
2023-01-29T23:42:32.339Z,86.19
2023-01-29T23:45:01.154Z,86.48
2023-01-29T23:47:31.560Z,86.43
2023-01-29T23:50:00.443Z,86.11
2023-01-29T23:52:29.414Z,86.45
2023-01-29T23:54:58.160Z,86.52
2023-01-29T23:57:27.004Z,86.65
2023-01-29T23:59:55.802Z,86.71
